sensor_id;sensor_type;location;lat;lon;timestamp;pressure;altitude;pressure_sealevel;temperature;humidity
21879;BME280;27908;42.708;23.278;2023-03-14T00:02:08;62557.75;;;0.99;100.00
21879;BME280;27908;42.708;23.278;2023-03-14T00:04:33;62541.06;;;0.90;100.00
21879;BME280;27908;42.708;23.278;2023-03-14T00:06:59;62548.47;;;0.83;100.00
21879;BME280;27908;42.708;23.278;2023-03-14T00:09:24;62536.41;;;0.81;100.00
21879;BME280;27908;42.708;23.278;2023-03-14T00:11:52;62529.63;;;0.62;100.00
21879;BME280;27908;42.708;23.278;2023-03-14T00:14:18;62526.03;;;0.56;100.00
21879;BME280;27908;42.708;23.278;2023-03-14T00:16:46;62515.81;;;0.44;100.00
21879;BME280;27908;42.708;23.278;2023-03-14T00:19:11;62487.06;;;0.65;100.00
21879;BME280;27908;42.708;23.278;2023-03-14T00:21:37;62535.84;;;0.75;98.81
21879;BME280;27908;42.708;23.278;2023-03-14T00:24:02;62575.69;;;0.92;96.20
21879;BME280;27908;42.708;23.278;2023-03-14T00:26:27;62569.47;;;1.13;93.70
21879;BME280;27908;42.708;23.278;2023-03-14T00:28:53;62566.13;;;1.22;92.96
21879;BME280;27908;42.708;23.278;2023-03-14T00:31:19;62613.91;;;1.32;92.25
21879;BME280;27908;42.708;23.278;2023-03-14T00:33:45;62569.69;;;1.28;93.79
21879;BME280;27908;42.708;23.278;2023-03-14T00:36:15;62566.69;;;0.93;99.21
21879;BME280;27908;42.708;23.278;2023-03-14T00:38:42;62537.44;;;0.82;99.27
21879;BME280;27908;42.708;23.278;2023-03-14T00:41:14;62529.66;;;0.65;97.11
21879;BME280;27908;42.708;23.278;2023-03-14T00:43:40;62525.34;;;0.77;96.45
21879;BME280;27908;42.708;23.278;2023-03-14T00:46:06;62535.31;;;0.75;95.34
21879;BME280;27908;42.708;23.278;2023-03-14T00:48:31;62528.38;;;0.80;96.40
21879;BME280;27908;42.708;23.278;2023-03-14T00:50:57;62544.38;;;0.76;97.13
21879;BME280;27908;42.708;23.278;2023-03-14T00:53:23;62571.16;;;0.59;96.77
21879;BME280;27908;42.708;23.278;2023-03-14T00:55:49;62531.34;;;0.76;95.73
21879;BME280;27908;42.708;23.278;2023-03-14T00:58:17;62545.41;;;0.77;96.36
21879;BME280;27908;42.708;23.278;2023-03-14T01:00:44;62521.91;;;0.81;95.39
21879;BME280;27908;42.708;23.278;2023-03-14T01:03:10;62679.25;;;0.78;95.76
21879;BME280;27908;42.708;23.278;2023-03-14T01:05:36;62563.31;;;0.70;96.00
21879;BME280;27908;42.708;23.278;2023-03-14T01:08:01;62457.91;;;0.58;95.76
21879;BME280;27908;42.708;23.278;2023-03-14T01:10:27;62502.91;;;0.51;96.09
21879;BME280;27908;42.708;23.278;2023-03-14T01:12:54;62479.66;;;0.38;96.74
21879;BME280;27908;42.708;23.278;2023-03-14T01:15:19;62313.75;;;-0.45;96.62
21879;BME280;27908;42.708;23.278;2023-03-14T01:17:45;62471.09;;;0.03;96.11
21879;BME280;27908;42.708;23.278;2023-03-14T01:20:12;62507.81;;;0.46;97.42
21879;BME280;27908;42.708;23.278;2023-03-14T01:22:39;62518.91;;;0.49;97.17
21879;BME280;27908;42.708;23.278;2023-03-14T01:25:13;62490.28;;;0.46;96.91
21879;BME280;27908;42.708;23.278;2023-03-14T01:27:39;62499.72;;;0.40;96.85
21879;BME280;27908;42.708;23.278;2023-03-14T01:30:05;62496.38;;;0.49;96.94
21879;BME280;27908;42.708;23.278;2023-03-14T01:32:31;62507.94;;;0.53;97.21
21879;BME280;27908;42.708;23.278;2023-03-14T01:34:56;62505.94;;;0.54;97.25
21879;BME280;27908;42.708;23.278;2023-03-14T01:37:22;62507.81;;;0.46;97.47
21879;BME280;27908;42.708;23.278;2023-03-14T01:39:47;62548.34;;;0.41;97.53
21879;BME280;27908;42.708;23.278;2023-03-14T01:42:14;62455.00;;;0.31;98.87
21879;BME280;27908;42.708;23.278;2023-03-14T01:47:14;62447.78;;;0.17;99.06
21879;BME280;27908;42.708;23.278;2023-03-14T01:49:39;62476.72;;;0.08;99.25
21879;BME280;27908;42.708;23.278;2023-03-14T01:52:09;62482.38;;;0.19;99.67
21879;BME280;27908;42.708;23.278;2023-03-14T01:54:41;62452.91;;;0.24;99.56
21879;BME280;27908;42.708;23.278;2023-03-14T01:57:20;62486.03;;;0.30;99.83
21879;BME280;27908;42.708;23.278;2023-03-14T02:00:01;62453.16;;;0.07;99.57
21879;BME280;27908;42.708;23.278;2023-03-14T02:02:31;62467.63;;;0.04;99.95
21879;BME280;27908;42.708;23.278;2023-03-14T02:04:58;62483.81;;;0.15;100.00
21879;BME280;27908;42.708;23.278;2023-03-14T02:07:51;62410.16;;;-0.22;100.00
21879;BME280;27908;42.708;23.278;2023-03-14T02:10:17;62468.13;;;0.05;100.00
21879;BME280;27908;42.708;23.278;2023-03-14T02:12:45;62467.41;;;0.24;100.00
21879;BME280;27908;42.708;23.278;2023-03-14T02:15:11;62487.00;;;0.28;100.00
21879;BME280;27908;42.708;23.278;2023-03-14T02:17:37;62489.03;;;0.30;100.00
21879;BME280;27908;42.708;23.278;2023-03-14T02:20:33;62447.38;;;0.24;100.00
21879;BME280;27908;42.708;23.278;2023-03-14T02:23:00;62466.75;;;0.13;100.00
21879;BME280;27908;42.708;23.278;2023-03-14T02:28:14;62453.41;;;-0.09;100.00
21879;BME280;27908;42.708;23.278;2023-03-14T02:30:40;62385.09;;;-0.59;100.00
21879;BME280;27908;42.708;23.278;2023-03-14T02:33:10;62402.13;;;-0.23;100.00
21879;BME280;27908;42.708;23.278;2023-03-14T02:38:30;62465.81;;;-0.14;100.00
21879;BME280;27908;42.708;23.278;2023-03-14T02:40:56;62453.81;;;-0.14;100.00
21879;BME280;27908;42.708;23.278;2023-03-14T02:43:22;62389.72;;;-0.18;100.00
21879;BME280;27908;42.708;23.278;2023-03-14T02:45:51;62406.72;;;-0.50;100.00
21879;BME280;27908;42.708;23.278;2023-03-14T02:50:46;62438.75;;;-0.16;100.00
21879;BME280;27908;42.708;23.278;2023-03-14T02:53:17;62371.91;;;-0.37;100.00
21879;BME280;27908;42.708;23.278;2023-03-14T02:55:47;62405.78;;;-0.46;100.00
21879;BME280;27908;42.708;23.278;2023-03-14T02:58:13;62362.38;;;-0.71;100.00
21879;BME280;27908;42.708;23.278;2023-03-14T03:00:39;62429.47;;;-0.35;100.00
21879;BME280;27908;42.708;23.278;2023-03-14T03:03:04;62453.47;;;-0.36;100.00
21879;BME280;27908;42.708;23.278;2023-03-14T03:05:31;62430.53;;;-0.32;100.00
21879;BME280;27908;42.708;23.278;2023-03-14T03:07:57;62422.91;;;-0.39;100.00
21879;BME280;27908;42.708;23.278;2023-03-14T03:10:22;62416.50;;;-0.33;100.00
21879;BME280;27908;42.708;23.278;2023-03-14T03:12:48;62406.13;;;-0.24;100.00
21879;BME280;27908;42.708;23.278;2023-03-14T03:15:13;62422.13;;;-0.25;100.00
21879;BME280;27908;42.708;23.278;2023-03-14T03:17:40;62415.69;;;-0.19;100.00
21879;BME280;27908;42.708;23.278;2023-03-14T03:20:06;62414.28;;;-0.13;100.00
21879;BME280;27908;42.708;23.278;2023-03-14T03:22:35;62425.41;;;-0.39;100.00
21879;BME280;27908;42.708;23.278;2023-03-14T03:25:01;62442.28;;;-0.15;100.00
21879;BME280;27908;42.708;23.278;2023-03-14T03:27:28;62447.00;;;-0.33;100.00
21879;BME280;27908;42.708;23.278;2023-03-14T03:29:54;62340.31;;;-0.75;100.00
21879;BME280;27908;42.708;23.278;2023-03-14T03:32:19;62443.34;;;-0.12;100.00
21879;BME280;27908;42.708;23.278;2023-03-14T03:34:45;62454.59;;;-0.28;100.00
21879;BME280;27908;42.708;23.278;2023-03-14T03:37:10;62429.03;;;-0.31;100.00
21879;BME280;27908;42.708;23.278;2023-03-14T03:39:35;62402.97;;;-0.66;100.00
21879;BME280;27908;42.708;23.278;2023-03-14T03:42:01;62382.31;;;-0.44;100.00
21879;BME280;27908;42.708;23.278;2023-03-14T03:44:27;62385.34;;;-0.41;100.00
21879;BME280;27908;42.708;23.278;2023-03-14T03:46:53;62393.41;;;-0.38;100.00
21879;BME280;27908;42.708;23.278;2023-03-14T03:49:19;62399.16;;;-0.55;100.00
21879;BME280;27908;42.708;23.278;2023-03-14T03:51:45;62353.81;;;-0.43;100.00
21879;BME280;27908;42.708;23.278;2023-03-14T03:54:10;62353.13;;;-0.56;100.00
21879;BME280;27908;42.708;23.278;2023-03-14T03:56:36;62391.09;;;-0.58;100.00
21879;BME280;27908;42.708;23.278;2023-03-14T03:59:01;62380.59;;;-0.58;100.00
21879;BME280;27908;42.708;23.278;2023-03-14T04:01:26;62412.03;;;-0.62;100.00
21879;BME280;27908;42.708;23.278;2023-03-14T04:03:52;62394.16;;;-0.55;100.00
21879;BME280;27908;42.708;23.278;2023-03-14T04:06:17;62400.94;;;-0.36;100.00
21879;BME280;27908;42.708;23.278;2023-03-14T04:08:43;62416.44;;;-0.36;100.00
21879;BME280;27908;42.708;23.278;2023-03-14T04:11:08;62401.94;;;-0.35;100.00
21879;BME280;27908;42.708;23.278;2023-03-14T04:13:34;62423.41;;;-0.38;100.00
21879;BME280;27908;42.708;23.278;2023-03-14T04:15:59;62395.91;;;-0.38;100.00
21879;BME280;27908;42.708;23.278;2023-03-14T04:18:25;62413.94;;;-0.36;100.00
21879;BME280;27908;42.708;23.278;2023-03-14T04:20:55;62398.88;;;-0.40;100.00
21879;BME280;27908;42.708;23.278;2023-03-14T04:23:21;62427.78;;;-0.46;100.00
21879;BME280;27908;42.708;23.278;2023-03-14T04:25:50;62408.13;;;-0.56;100.00
21879;BME280;27908;42.708;23.278;2023-03-14T04:28:15;62383.13;;;-0.56;100.00
21879;BME280;27908;42.708;23.278;2023-03-14T04:30:41;62418.63;;;-0.55;100.00
21879;BME280;27908;42.708;23.278;2023-03-14T04:33:06;62368.00;;;-0.63;100.00
21879;BME280;27908;42.708;23.278;2023-03-14T04:35:33;62382.22;;;-0.81;100.00
21879;BME280;27908;42.708;23.278;2023-03-14T04:37:58;62528.66;;;-0.55;100.00
21879;BME280;27908;42.708;23.278;2023-03-14T04:40:24;62409.25;;;-0.47;100.00
21879;BME280;27908;42.708;23.278;2023-03-14T04:42:50;62400.75;;;-0.48;100.00
21879;BME280;27908;42.708;23.278;2023-03-14T04:45:15;62394.63;;;-0.57;100.00
21879;BME280;27908;42.708;23.278;2023-03-14T04:47:41;62410.16;;;-0.54;100.00
21879;BME280;27908;42.708;23.278;2023-03-14T04:50:07;62426.72;;;-0.50;100.00
21879;BME280;27908;42.708;23.278;2023-03-14T04:52:33;62359.09;;;-0.57;100.00
21879;BME280;27908;42.708;23.278;2023-03-14T04:54:58;62374.75;;;-0.78;100.00
21879;BME280;27908;42.708;23.278;2023-03-14T04:57:24;62425.00;;;-0.64;100.00
21879;BME280;27908;42.708;23.278;2023-03-14T04:59:49;62391.50;;;-0.65;100.00
21879;BME280;27908;42.708;23.278;2023-03-14T05:02:14;62393.53;;;-0.63;100.00
21879;BME280;27908;42.708;23.278;2023-03-14T05:04:40;62397.44;;;-0.69;100.00
21879;BME280;27908;42.708;23.278;2023-03-14T05:07:05;62356.84;;;-0.74;100.00
21879;BME280;27908;42.708;23.278;2023-03-14T05:09:31;62370.91;;;-0.70;100.00
21879;BME280;27908;42.708;23.278;2023-03-14T05:11:56;62381.06;;;-0.60;100.00
21879;BME280;27908;42.708;23.278;2023-03-14T05:14:21;62398.09;;;-0.58;100.00
21879;BME280;27908;42.708;23.278;2023-03-14T05:16:47;62369.88;;;-0.71;100.00
21879;BME280;27908;42.708;23.278;2023-03-14T05:19:12;62398.25;;;-0.48;100.00
21879;BME280;27908;42.708;23.278;2023-03-14T05:21:38;62544.88;;;-0.44;100.00
21879;BME280;27908;42.708;23.278;2023-03-14T05:24:03;62470.13;;;-0.27;100.00
21879;BME280;27908;42.708;23.278;2023-03-14T05:26:29;62449.28;;;-0.16;100.00
21879;BME280;27908;42.708;23.278;2023-03-14T05:28:54;62417.41;;;-0.05;100.00
21879;BME280;27908;42.708;23.278;2023-03-14T05:31:20;62465.63;;;0.05;100.00
21879;BME280;27908;42.708;23.278;2023-03-14T05:33:45;62491.88;;;0.18;100.00
21879;BME280;27908;42.708;23.278;2023-03-14T05:36:11;62477.59;;;0.34;100.00
21879;BME280;27908;42.708;23.278;2023-03-14T05:38:37;62527.38;;;0.45;100.00
21879;BME280;27908;42.708;23.278;2023-03-14T05:41:02;62492.22;;;0.40;100.00
21879;BME280;27908;42.708;23.278;2023-03-14T05:43:28;62499.09;;;0.64;100.00
21879;BME280;27908;42.708;23.278;2023-03-14T05:45:53;62524.28;;;0.74;100.00
21879;BME280;27908;42.708;23.278;2023-03-14T05:48:19;62532.97;;;0.85;100.00
21879;BME280;27908;42.708;23.278;2023-03-14T05:50:44;62532.19;;;1.01;98.85
21879;BME280;27908;42.708;23.278;2023-03-14T05:53:09;62590.09;;;1.16;98.52
21879;BME280;27908;42.708;23.278;2023-03-14T05:55:35;62583.81;;;1.32;97.44
21879;BME280;27908;42.708;23.278;2023-03-14T05:58:00;62584.47;;;1.42;97.04
21879;BME280;27908;42.708;23.278;2023-03-14T06:00:26;62631.78;;;1.51;96.04
21879;BME280;27908;42.708;23.278;2023-03-14T06:02:51;62604.78;;;1.59;94.67
21879;BME280;27908;42.708;23.278;2023-03-14T06:05:16;62658.69;;;1.73;94.48
21879;BME280;27908;42.708;23.278;2023-03-14T06:07:42;62620.97;;;1.68;92.57
21879;BME280;27908;42.708;23.278;2023-03-14T06:10:08;62672.53;;;1.91;92.94
21879;BME280;27908;42.708;23.278;2023-03-14T06:12:34;62639.91;;;1.93;91.73
21879;BME280;27908;42.708;23.278;2023-03-14T06:14:59;62664.75;;;2.10;91.17
21879;BME280;27908;42.708;23.278;2023-03-14T06:17:24;62695.03;;;2.20;90.23
21879;BME280;27908;42.708;23.278;2023-03-14T06:19:50;62676.53;;;2.26;89.27
21879;BME280;27908;42.708;23.278;2023-03-14T06:22:15;62684.16;;;2.31;88.02
21879;BME280;27908;42.708;23.278;2023-03-14T06:24:40;62708.31;;;2.35;89.94
21879;BME280;27908;42.708;23.278;2023-03-14T06:27:06;62679.66;;;2.34;87.84
21879;BME280;27908;42.708;23.278;2023-03-14T06:29:32;62705.94;;;2.45;89.96
21879;BME280;27908;42.708;23.278;2023-03-14T06:31:57;62687.75;;;2.37;84.90
21879;BME280;27908;42.708;23.278;2023-03-14T06:34:22;62727.28;;;2.61;85.96
21879;BME280;27908;42.708;23.278;2023-03-14T06:36:48;62746.03;;;2.72;83.62
21879;BME280;27908;42.708;23.278;2023-03-14T06:39:13;62743.09;;;2.76;80.80
21879;BME280;27908;42.708;23.278;2023-03-14T06:41:39;62719.50;;;2.80;81.42
21879;BME280;27908;42.708;23.278;2023-03-14T06:44:04;62739.16;;;2.82;80.16
21879;BME280;27908;42.708;23.278;2023-03-14T06:46:30;62780.28;;;3.12;79.52
21879;BME280;27908;42.708;23.278;2023-03-14T06:48:55;62760.78;;;3.20;79.70
21879;BME280;27908;42.708;23.278;2023-03-14T06:51:21;62790.00;;;3.21;79.06
21879;BME280;27908;42.708;23.278;2023-03-14T06:53:46;62822.28;;;3.28;78.93
21879;BME280;27908;42.708;23.278;2023-03-14T06:56:12;62847.03;;;3.33;78.31
21879;BME280;27908;42.708;23.278;2023-03-14T06:58:37;62806.97;;;3.48;78.65
21879;BME280;27908;42.708;23.278;2023-03-14T07:01:03;62856.59;;;3.69;78.07
21879;BME280;27908;42.708;23.278;2023-03-14T07:03:28;62853.09;;;3.70;76.58
21879;BME280;27908;42.708;23.278;2023-03-14T07:05:54;62870.88;;;3.83;76.69
21879;BME280;27908;42.708;23.278;2023-03-14T07:08:19;62859.25;;;3.79;75.61
21879;BME280;27908;42.708;23.278;2023-03-14T07:10:45;62865.50;;;3.94;76.32
21879;BME280;27908;42.708;23.278;2023-03-14T07:13:10;62881.25;;;4.05;75.31
21879;BME280;27908;42.708;23.278;2023-03-14T07:15:36;62882.38;;;4.13;73.80
21879;BME280;27908;42.708;23.278;2023-03-14T07:18:01;62879.34;;;4.13;72.62
21879;BME280;27908;42.708;23.278;2023-03-14T07:20:27;62902.66;;;4.23;74.64
21879;BME280;27908;42.708;23.278;2023-03-14T07:22:53;62896.25;;;4.34;74.36
21879;BME280;27908;42.708;23.278;2023-03-14T07:25:22;62906.31;;;4.31;73.06
21879;BME280;27908;42.708;23.278;2023-03-14T07:27:47;62965.53;;;4.47;73.20
21879;BME280;27908;42.708;23.278;2023-03-14T07:30:13;62943.97;;;4.58;72.69
21879;BME280;27908;42.708;23.278;2023-03-14T07:32:39;62930.41;;;4.62;71.52
21879;BME280;27908;42.708;23.278;2023-03-14T07:35:05;62965.97;;;4.82;72.51
21879;BME280;27908;42.708;23.278;2023-03-14T07:37:31;62980.75;;;4.94;73.14
21879;BME280;27908;42.708;23.278;2023-03-14T07:39:56;62958.66;;;5.01;70.02
21879;BME280;27908;42.708;23.278;2023-03-14T07:42:22;62993.88;;;4.94;68.95
21879;BME280;27908;42.708;23.278;2023-03-14T07:44:47;63008.84;;;5.21;68.29
21879;BME280;27908;42.708;23.278;2023-03-14T07:47:12;63035.66;;;5.22;68.99
21879;BME280;27908;42.708;23.278;2023-03-14T07:49:38;63002.66;;;5.10;66.94
21879;BME280;27908;42.708;23.278;2023-03-14T07:52:04;63015.16;;;5.41;68.78
21879;BME280;27908;42.708;23.278;2023-03-14T07:54:29;63053.22;;;5.54;68.10
21879;BME280;27908;42.708;23.278;2023-03-14T07:56:54;63032.50;;;5.53;67.53
21879;BME280;27908;42.708;23.278;2023-03-14T07:59:20;63099.53;;;5.79;66.01
21879;BME280;27908;42.708;23.278;2023-03-14T08:01:45;63037.31;;;5.75;65.28
21879;BME280;27908;42.708;23.278;2023-03-14T08:04:11;63116.47;;;5.98;64.71
21879;BME280;27908;42.708;23.278;2023-03-14T08:06:37;63130.25;;;6.08;64.27
21879;BME280;27908;42.708;23.278;2023-03-14T08:09:03;63066.50;;;6.05;64.39
21879;BME280;27908;42.708;23.278;2023-03-14T08:11:29;63135.53;;;6.26;62.99
21879;BME280;27908;42.708;23.278;2023-03-14T08:13:54;63147.19;;;6.27;61.65
21879;BME280;27908;42.708;23.278;2023-03-14T08:16:21;63141.03;;;6.21;62.49
21879;BME280;27908;42.708;23.278;2023-03-14T08:18:46;63174.16;;;6.41;62.93
21879;BME280;27908;42.708;23.278;2023-03-14T08:21:12;63169.78;;;6.56;62.32
21879;BME280;27908;42.708;23.278;2023-03-14T08:23:38;63192.19;;;6.66;61.28
21879;BME280;27908;42.708;23.278;2023-03-14T08:26:03;63374.81;;;6.93;63.23
21879;BME280;27908;42.708;23.278;2023-03-14T08:28:29;63202.69;;;6.98;61.89
21879;BME280;27908;42.708;23.278;2023-03-14T08:30:59;63254.63;;;7.23;60.95
21879;BME280;27908;42.708;23.278;2023-03-14T08:33:26;63253.75;;;7.32;59.60
21879;BME280;27908;42.708;23.278;2023-03-14T08:35:54;63262.88;;;7.34;57.13
21879;BME280;27908;42.708;23.278;2023-03-14T08:38:20;63256.72;;;7.28;57.58
21879;BME280;27908;42.708;23.278;2023-03-14T08:40:45;63264.47;;;7.40;57.87
21879;BME280;27908;42.708;23.278;2023-03-14T08:43:10;63275.78;;;7.56;57.94
21879;BME280;27908;42.708;23.278;2023-03-14T08:45:36;63324.19;;;7.73;56.06
21879;BME280;27908;42.708;23.278;2023-03-14T08:48:01;63278.44;;;7.66;54.55
21879;BME280;27908;42.708;23.278;2023-03-14T08:50:27;63299.66;;;7.59;54.46
21879;BME280;27908;42.708;23.278;2023-03-14T08:52:52;63339.91;;;7.74;53.83
21879;BME280;27908;42.708;23.278;2023-03-14T08:55:18;63299.53;;;7.93;54.72
21879;BME280;27908;42.708;23.278;2023-03-14T08:57:43;63405.53;;;8.29;56.17
21879;BME280;27908;42.708;23.278;2023-03-14T09:00:09;63422.19;;;8.67;55.49
21879;BME280;27908;42.708;23.278;2023-03-14T09:02:37;63479.97;;;8.98;53.77
21879;BME280;27908;42.708;23.278;2023-03-14T09:05:03;63519.34;;;9.22;52.92
21879;BME280;27908;42.708;23.278;2023-03-14T09:07:28;63523.03;;;9.32;50.32
21879;BME280;27908;42.708;23.278;2023-03-14T09:09:54;63550.72;;;9.52;51.08
21879;BME280;27908;42.708;23.278;2023-03-14T09:12:19;63581.03;;;9.78;50.26
21879;BME280;27908;42.708;23.278;2023-03-14T09:14:45;63610.78;;;9.99;50.27
21879;BME280;27908;42.708;23.278;2023-03-14T09:17:10;63636.88;;;10.10;47.53
21879;BME280;27908;42.708;23.278;2023-03-14T09:19:35;63614.59;;;10.20;48.92
21879;BME280;27908;42.708;23.278;2023-03-14T09:22:01;63673.91;;;10.43;48.68
21879;BME280;27908;42.708;23.278;2023-03-14T09:24:26;63802.34;;;10.46;46.82
21879;BME280;27908;42.708;23.278;2023-03-14T09:26:52;63709.69;;;10.53;46.72
21879;BME280;27908;42.708;23.278;2023-03-14T09:29:17;63695.56;;;10.66;46.14
21879;BME280;27908;42.708;23.278;2023-03-14T09:31:43;63731.81;;;10.71;46.46
21879;BME280;27908;42.708;23.278;2023-03-14T09:34:08;63750.28;;;10.84;45.76
21879;BME280;27908;42.708;23.278;2023-03-14T09:36:34;63784.84;;;11.17;45.49
21879;BME280;27908;42.708;23.278;2023-03-14T09:38:59;63795.72;;;11.35;44.84
21879;BME280;27908;42.708;23.278;2023-03-14T09:41:28;63856.22;;;11.56;45.84
21879;BME280;27908;42.708;23.278;2023-03-14T09:44:13;63905.03;;;11.86;44.03
21879;BME280;27908;42.708;23.278;2023-03-14T09:46:40;63841.28;;;11.93;41.94
21879;BME280;27908;42.708;23.278;2023-03-14T09:49:20;63878.59;;;11.95;43.31
21879;BME280;27908;42.708;23.278;2023-03-14T09:51:47;63901.75;;;12.12;42.05
21879;BME280;27908;42.708;23.278;2023-03-14T09:54:34;63914.13;;;12.24;42.18
21879;BME280;27908;42.708;23.278;2023-03-14T09:57:01;63921.31;;;12.26;42.68
21879;BME280;27908;42.708;23.278;2023-03-14T09:59:28;63941.50;;;12.52;42.92
21879;BME280;27908;42.708;23.278;2023-03-14T10:01:58;63980.19;;;12.82;41.50
21879;BME280;27908;42.708;23.278;2023-03-14T10:04:25;64031.41;;;12.89;41.20
21879;BME280;27908;42.708;23.278;2023-03-14T10:06:52;64024.28;;;12.90;40.60
21879;BME280;27908;42.708;23.278;2023-03-14T10:09:21;64021.28;;;12.99;40.92
21879;BME280;27908;42.708;23.278;2023-03-14T10:11:58;64084.00;;;13.25;42.55
21879;BME280;27908;42.708;23.278;2023-03-14T10:14:35;64089.38;;;13.01;39.03
21879;BME280;27908;42.708;23.278;2023-03-14T10:17:09;64079.34;;;13.20;39.79
21879;BME280;27908;42.708;23.278;2023-03-14T10:19:36;64125.25;;;13.52;40.69
21879;BME280;27908;42.708;23.278;2023-03-14T10:22:04;64188.16;;;13.90;40.13
21879;BME280;27908;42.708;23.278;2023-03-14T10:24:33;64232.03;;;14.17;38.93
21879;BME280;27908;42.708;23.278;2023-03-14T10:27:00;64237.81;;;14.30;37.71
21879;BME280;27908;42.708;23.278;2023-03-14T10:29:28;64269.34;;;14.53;38.69
21879;BME280;27908;42.708;23.278;2023-03-14T10:34:32;64337.59;;;15.00;37.79
21879;BME280;27908;42.708;23.278;2023-03-14T10:37:05;64380.50;;;15.27;37.16
21879;BME280;27908;42.708;23.278;2023-03-14T10:39:49;64422.41;;;15.54;37.53
21879;BME280;27908;42.708;23.278;2023-03-14T10:42:20;64443.25;;;15.35;35.52
21879;BME280;27908;42.708;23.278;2023-03-14T10:44:50;64415.53;;;15.35;36.62
21879;BME280;27908;42.708;23.278;2023-03-14T10:47:21;64398.53;;;15.31;35.59
21879;BME280;27908;42.708;23.278;2023-03-14T10:49:47;64310.41;;;15.01;36.32
21879;BME280;27908;42.708;23.278;2023-03-14T10:52:28;64384.47;;;15.13;38.69
21879;BME280;27908;42.708;23.278;2023-03-14T10:55:00;64407.22;;;15.28;37.39
21879;BME280;27908;42.708;23.278;2023-03-14T10:57:26;64380.47;;;15.24;38.25
21879;BME280;27908;42.708;23.278;2023-03-14T10:59:53;64431.47;;;15.36;38.48
21879;BME280;27908;42.708;23.278;2023-03-14T11:05:18;64514.91;;;15.98;38.89
21879;BME280;27908;42.708;23.278;2023-03-14T11:07:48;64494.78;;;15.94;36.76
21879;BME280;27908;42.708;23.278;2023-03-14T11:10:24;64601.75;;;16.34;38.25
21879;BME280;27908;42.708;23.278;2023-03-14T11:13:23;64665.47;;;16.68;36.75
21879;BME280;27908;42.708;23.278;2023-03-14T11:16:13;64585.72;;;16.75;37.37
21879;BME280;27908;42.708;23.278;2023-03-14T11:21:47;64734.47;;;17.13;36.80
21879;BME280;27908;42.708;23.278;2023-03-14T11:24:49;64745.56;;;17.34;36.39
21879;BME280;27908;42.708;23.278;2023-03-14T11:35:42;64782.25;;;17.42;35.49
21879;BME280;27908;42.708;23.278;2023-03-14T11:38:34;64787.94;;;17.42;37.49
21879;BME280;27908;42.708;23.278;2023-03-14T11:41:01;64805.19;;;17.63;37.48
21879;BME280;27908;42.708;23.278;2023-03-14T11:43:33;64842.56;;;17.84;38.77
21879;BME280;27908;42.708;23.278;2023-03-14T11:46:05;64904.44;;;18.20;36.63
21879;BME280;27908;42.708;23.278;2023-03-14T11:51:32;64951.53;;;18.31;34.17
21879;BME280;27908;42.708;23.278;2023-03-14T11:59:03;64866.03;;;18.04;35.91
21879;BME280;27908;42.708;23.278;2023-03-14T12:06:52;64953.66;;;18.35;35.41
21879;BME280;27908;42.708;23.278;2023-03-14T12:09:20;64912.13;;;18.16;35.32
21879;BME280;27908;42.708;23.278;2023-03-14T12:14:27;64900.72;;;18.12;35.55
21879;BME280;27908;42.708;23.278;2023-03-14T12:17:25;64926.16;;;18.24;35.80
21879;BME280;27908;42.708;23.278;2023-03-14T12:20:21;64962.53;;;18.44;35.24
21879;BME280;27908;42.708;23.278;2023-03-14T12:22:50;65047.16;;;18.80;35.86
21879;BME280;27908;42.708;23.278;2023-03-14T12:25:26;65006.28;;;18.73;35.12
21879;BME280;27908;42.708;23.278;2023-03-14T12:35:35;65046.47;;;18.64;35.04
21879;BME280;27908;42.708;23.278;2023-03-14T12:38:03;64930.06;;;18.50;35.14
21879;BME280;27908;42.708;23.278;2023-03-14T12:40:32;64975.47;;;18.46;35.08
21879;BME280;27908;42.708;23.278;2023-03-14T12:43:01;64987.31;;;18.43;34.96
21879;BME280;27908;42.708;23.278;2023-03-14T12:45:35;64980.28;;;18.58;35.14
21879;BME280;27908;42.708;23.278;2023-03-14T12:48:25;64993.78;;;18.66;33.89
21879;BME280;27908;42.708;23.278;2023-03-14T12:51:01;64998.13;;;18.41;33.48
21879;BME280;27908;42.708;23.278;2023-03-14T13:01:59;65061.66;;;18.81;33.93
21879;BME280;27908;42.708;23.278;2023-03-14T13:04:36;65074.84;;;19.01;33.11
21879;BME280;27908;42.708;23.278;2023-03-14T13:12:29;65148.19;;;19.36;33.02
21879;BME280;27908;42.708;23.278;2023-03-14T13:14:59;65204.25;;;19.50;32.53
21879;BME280;27908;42.708;23.278;2023-03-14T13:17:29;65162.25;;;19.44;33.29
21879;BME280;27908;42.708;23.278;2023-03-14T13:19:57;65174.63;;;19.39;32.76
21879;BME280;27908;42.708;23.278;2023-03-14T13:22:28;65171.28;;;19.62;32.16
21879;BME280;27908;42.708;23.278;2023-03-14T13:25:10;65189.00;;;19.72;31.87
21879;BME280;27908;42.708;23.278;2023-03-14T13:27:36;65238.91;;;19.87;32.55
21879;BME280;27908;42.708;23.278;2023-03-14T13:30:20;65244.47;;;19.78;31.98
21879;BME280;27908;42.708;23.278;2023-03-14T13:32:47;65181.16;;;19.64;32.05
21879;BME280;27908;42.708;23.278;2023-03-14T13:37:44;65149.63;;;19.69;33.15
21879;BME280;27908;42.708;23.278;2023-03-14T13:40:25;65271.97;;;19.82;32.33
21879;BME280;27908;42.708;23.278;2023-03-14T13:43:04;65211.31;;;19.76;32.79
21879;BME280;27908;42.708;23.278;2023-03-14T13:45:30;65249.19;;;19.80;32.07
21879;BME280;27908;42.708;23.278;2023-03-14T13:47:56;65234.78;;;19.88;32.79
21879;BME280;27908;42.708;23.278;2023-03-14T13:50:21;65214.69;;;19.96;30.73
21879;BME280;27908;42.708;23.278;2023-03-14T13:52:55;65307.63;;;20.15;31.17
21879;BME280;27908;42.708;23.278;2023-03-14T13:55:20;65227.06;;;19.93;30.59
21879;BME280;27908;42.708;23.278;2023-03-14T13:57:51;65189.03;;;19.74;31.32
21879;BME280;27908;42.708;23.278;2023-03-14T14:00:24;65297.59;;;20.01;31.35
21879;BME280;27908;42.708;23.278;2023-03-14T14:02:56;65211.22;;;19.68;30.54
21879;BME280;27908;42.708;23.278;2023-03-14T14:05:26;65224.75;;;19.74;31.36